createdAt,value
2023-03-12T00:00:11.380Z,97216.72
2023-03-12T00:02:39.096Z,97216.84
2023-03-12T00:05:07.654Z,97222.00
2023-03-12T00:07:36.390Z,97217.53
2023-03-12T00:10:06.092Z,97225.31
2023-03-12T00:12:33.757Z,97222.69
2023-03-12T00:15:01.400Z,97226.16
2023-03-12T00:17:30.200Z,97231.41
2023-03-12T00:19:57.962Z,97224.63
2023-03-12T00:22:26.105Z,97213.09
2023-03-12T00:24:56.861Z,97222.00
2023-03-12T00:27:26.152Z,97229.03
2023-03-12T00:29:53.872Z,97227.38
2023-03-12T00:32:21.710Z,97221.28
2023-03-12T00:34:55.454Z,97215.03
2023-03-12T00:37:23.090Z,97211.81
2023-03-12T00:39:51.023Z,97211.00
2023-03-12T00:42:19.113Z,97207.41
2023-03-12T00:44:46.803Z,97207.53
2023-03-12T00:47:14.361Z,97211.13
2023-03-12T00:49:42.121Z,97218.06
2023-03-12T00:52:09.748Z,97209.19
2023-03-12T00:54:37.549Z,97211.13
2023-03-12T00:57:06.593Z,97212.09
2023-03-12T00:59:40.166Z,97206.72
2023-03-12T01:02:08.567Z,97207.66
2023-03-12T01:04:36.250Z,97203.63
2023-03-12T01:07:03.912Z,97210.00
2023-03-12T01:09:31.490Z,97214.03
2023-03-12T01:11:59.104Z,97202.09
2023-03-12T01:14:26.710Z,97206.38
2023-03-12T01:16:54.819Z,97206.25
2023-03-12T01:19:22.758Z,97205.72
2023-03-12T01:21:50.247Z,97204.63
2023-03-12T01:24:17.809Z,97205.09
2023-03-12T01:26:45.580Z,97203.72
2023-03-12T01:29:13.036Z,97198.91
2023-03-12T01:31:40.614Z,97203.78
2023-03-12T01:34:11.821Z,97203.25
2023-03-12T01:36:41.205Z,97204.41
2023-03-12T01:39:08.761Z,97204.97
2023-03-12T01:41:36.715Z,97209.00
2023-03-12T01:44:05.548Z,97203.19
2023-03-12T01:46:38.960Z,97206.97
2023-03-12T01:49:27.096Z,97206.81
2023-03-12T01:52:10.597Z,97207.53
2023-03-12T01:54:50.692Z,97210.34
2023-03-12T01:57:32.149Z,97209.09
2023-03-12T02:00:09.282Z,97206.91
2023-03-12T02:02:44.580Z,97202.31
2023-03-12T02:06:03.518Z,97203.25
2023-03-12T02:08:31.064Z,97208.53
2023-03-12T02:10:58.641Z,97206.13
2023-03-12T02:13:26.364Z,97207.34
2023-03-12T02:15:54.348Z,97199.97
2023-03-12T02:18:22.143Z,97196.78
2023-03-12T02:21:20.318Z,97191.78
2023-03-12T02:24:14.933Z,97193.97
2023-03-12T02:26:42.688Z,97190.06
2023-03-12T02:29:11.685Z,97184.97
2023-03-12T02:31:51.997Z,97190.38
2023-03-12T02:34:19.724Z,97188.28
2023-03-12T02:36:48.877Z,97182.19
2023-03-12T02:39:16.663Z,97187.47
2023-03-12T02:42:02.548Z,97190.50
2023-03-12T02:44:33.368Z,97196.19
2023-03-12T02:47:02.572Z,97180.94
2023-03-12T02:49:33.772Z,97188.00
2023-03-12T02:52:02.711Z,97185.91
2023-03-12T02:54:30.722Z,97191.31
2023-03-12T02:56:58.741Z,97191.44
2023-03-12T02:59:27.621Z,97190.47
2023-03-12T03:02:00.796Z,97184.22
2023-03-12T03:04:30.896Z,97185.78
2023-03-12T03:06:58.527Z,97173.44
2023-03-12T03:09:26.145Z,97173.72
2023-03-12T03:11:53.805Z,97170.56
2023-03-12T03:14:23.423Z,97167.53
2023-03-12T03:16:51.934Z,97166.16
2023-03-12T03:19:23.401Z,97154.94
2023-03-12T03:21:51.437Z,97158.69
2023-03-12T03:24:19.126Z,97162.47
2023-03-12T03:26:46.938Z,97164.44
2023-03-12T03:29:14.649Z,97166.66
2023-03-12T03:31:42.180Z,97174.28
2023-03-12T03:34:09.861Z,97168.75
2023-03-12T03:36:37.402Z,97175.69
2023-03-12T03:39:10.129Z,97175.44
2023-03-12T03:41:37.722Z,97174.31
2023-03-12T03:44:07.662Z,97169.59
2023-03-12T03:46:37.025Z,97175.31
2023-03-12T03:49:07.816Z,97169.59
2023-03-12T03:51:36.524Z,97165.84
2023-03-12T03:54:09.748Z,97157.53
2023-03-12T03:56:37.628Z,97140.44
2023-03-12T03:59:06.582Z,97142.09
2023-03-12T04:01:36.920Z,97143.50
2023-03-12T04:04:05.328Z,97144.91
2023-03-12T04:06:34.953Z,97145.72
2023-03-12T04:09:02.560Z,97161.44
2023-03-12T04:11:31.263Z,97168.34
2023-03-12T04:14:00.094Z,97160.16
2023-03-12T04:16:31.149Z,97162.50
2023-03-12T04:18:59.605Z,97154.59
2023-03-12T04:21:27.984Z,97159.75
2023-03-12T04:23:55.812Z,97163.91
2023-03-12T04:26:27.885Z,97164.31
2023-03-12T04:28:57.383Z,97164.19
2023-03-12T04:31:25.109Z,97162.09
2023-03-12T04:33:52.710Z,97161.81
2023-03-12T04:36:23.636Z,97158.91
2023-03-12T04:38:52.784Z,97172.91
2023-03-12T04:41:24.971Z,97170.28
2023-03-12T04:43:58.490Z,97164.03
2023-03-12T04:46:26.364Z,97156.94
2023-03-12T04:48:53.932Z,97164.88
2023-03-12T04:51:21.604Z,97163.75
2023-03-12T04:53:49.281Z,97155.97
2023-03-12T04:56:17.005Z,97160.53
2023-03-12T04:58:46.716Z,97167.78
2023-03-12T05:01:21.343Z,97156.38
2023-03-12T05:03:48.888Z,97160.03
2023-03-12T05:06:16.588Z,97151.41
2023-03-12T05:08:44.385Z,97149.84
2023-03-12T05:11:12.638Z,97160.28
2023-03-12T05:13:40.540Z,97154.06
2023-03-12T05:16:10.148Z,97153.88
2023-03-12T05:18:38.945Z,97151.53
2023-03-12T05:21:14.339Z,97141.81
2023-03-12T05:23:43.078Z,97150.84
2023-03-12T05:26:38.316Z,97153.34
2023-03-12T05:29:18.131Z,97155.09
2023-03-12T05:31:46.243Z,97164.03
2023-03-12T05:34:14.606Z,97172.50
2023-03-12T05:36:44.910Z,97163.88
2023-03-12T05:39:14.941Z,97165.41
2023-03-12T05:41:43.348Z,97167.91
2023-03-12T05:44:16.011Z,97170.81
2023-03-12T05:46:45.938Z,97166.38
2023-03-12T05:49:13.455Z,97165.28
2023-03-12T05:51:41.803Z,97171.38
2023-03-12T05:54:10.488Z,97166.09
2023-03-12T05:56:38.380Z,97166.09
2023-03-12T05:59:07.053Z,97159.97
2023-03-12T06:01:34.637Z,97159.00
2023-03-12T06:04:04.943Z,97155.25
2023-03-12T06:06:34.822Z,97162.19
2023-03-12T06:09:04.372Z,97157.72
2023-03-12T06:11:34.688Z,97153.00
2023-03-12T06:14:02.488Z,97149.09
2023-03-12T06:16:30.568Z,97154.09
2023-03-12T06:19:01.778Z,97146.88
2023-03-12T06:21:33.391Z,97151.88
2023-03-12T06:24:02.627Z,97147.28
2023-03-12T06:26:37.704Z,97141.53
2023-03-12T06:29:05.219Z,97138.34
2023-03-12T06:31:32.869Z,97133.16
2023-03-12T06:34:00.380Z,97130.25
2023-03-12T06:36:27.932Z,97133.56
2023-03-12T06:38:57.225Z,97126.72
2023-03-12T06:41:24.922Z,97128.94
2023-03-12T06:43:52.436Z,97127.66
2023-03-12T06:46:21.754Z,97130.00
2023-03-12T06:48:49.410Z,97140.00
2023-03-12T06:51:17.833Z,97137.91
2023-03-12T06:53:45.757Z,97134.13
2023-03-12T06:56:13.895Z,97138.56
2023-03-12T06:58:41.738Z,97132.84
2023-03-12T07:01:09.861Z,97136.84
2023-03-12T07:03:37.562Z,97128.75
2023-03-12T07:06:05.668Z,97140.16
2023-03-12T07:08:33.258Z,97139.88
2023-03-12T07:11:01.981Z,97144.56
2023-03-12T07:13:30.539Z,97145.25
2023-03-12T07:15:58.445Z,97142.31
2023-03-12T07:18:26.295Z,97148.97
2023-03-12T07:20:54.715Z,97146.19
2023-03-12T07:23:22.910Z,97148.69
2023-03-12T07:25:50.497Z,97154.81
2023-03-12T07:28:18.981Z,97150.06
2023-03-12T07:30:52.919Z,97151.56
2023-03-12T07:33:22.111Z,97145.13
2023-03-12T07:35:51.715Z,97155.44
2023-03-12T07:38:19.871Z,97146.34
2023-03-12T07:40:55.778Z,97148.69
2023-03-12T07:43:24.636Z,97146.13
2023-03-12T07:45:55.283Z,97152.50
2023-03-12T07:48:22.989Z,97154.00
2023-03-12T07:50:50.935Z,97161.47
2023-03-12T07:53:18.797Z,97156.56
2023-03-12T07:55:48.217Z,97157.25
2023-03-12T07:58:17.232Z,97154.31
2023-03-12T08:00:45.090Z,97158.16
2023-03-12T08:03:13.319Z,97159.50
2023-03-12T08:05:41.473Z,97159.19
2023-03-12T08:08:09.688Z,97165.00
2023-03-12T08:10:37.651Z,97163.72
2023-03-12T08:13:05.255Z,97174.84
2023-03-12T08:15:33.510Z,97167.56
2023-03-12T08:18:01.399Z,97175.84
2023-03-12T08:20:29.014Z,97180.28
2023-03-12T08:22:56.642Z,97172.53
2023-03-12T08:25:24.647Z,97175.16
2023-03-12T08:27:52.981Z,97176.00
2023-03-12T08:30:20.760Z,97178.31
2023-03-12T08:32:48.322Z,97178.84
2023-03-12T08:35:15.893Z,97181.88
2023-03-12T08:37:43.370Z,97187.72
2023-03-12T08:40:13.227Z,97168.84
2023-03-12T08:42:44.856Z,97179.00
2023-03-12T08:45:14.179Z,97174.41
2023-03-12T08:47:43.502Z,97183.41
2023-03-12T08:50:13.434Z,97167.84
2023-03-12T08:52:41.149Z,97164.75
2023-03-12T08:55:10.285Z,97162.97
2023-03-12T08:57:38.128Z,97164.66
2023-03-12T09:00:11.342Z,97163.19
2023-03-12T09:02:39.114Z,97161.00
2023-03-12T09:05:09.281Z,97167.81
2023-03-12T09:07:37.673Z,97169.34
2023-03-12T09:10:06.582Z,97167.44
2023-03-12T09:12:34.225Z,97166.34
2023-03-12T09:15:03.871Z,97171.00
2023-03-12T09:17:32.454Z,97171.19
2023-03-12T09:20:00.682Z,97168.88
2023-03-12T09:22:30.604Z,97172.72
2023-03-12T09:24:58.214Z,97182.69
2023-03-12T09:27:25.707Z,97188.19
2023-03-12T09:30:00.610Z,97188.22
2023-03-12T09:32:29.193Z,97189.91
2023-03-12T09:34:56.749Z,97187.41
2023-03-12T09:37:24.620Z,97195.44
2023-03-12T09:39:53.238Z,97193.75
2023-03-12T09:42:49.072Z,97194.78
2023-03-12T09:45:28.242Z,97190.47
2023-03-12T09:48:00.403Z,97192.31
2023-03-12T09:50:33.918Z,97193.47
2023-03-12T09:53:41.155Z,97188.63
2023-03-12T09:56:16.989Z,97185.66
2023-03-12T09:58:49.167Z,97192.13
2023-03-12T10:01:47.238Z,97199.28
2023-03-12T10:04:48.712Z,97194.63
2023-03-12T10:07:35.771Z,97204.44
2023-03-12T10:10:26.453Z,97193.47
2023-03-12T10:13:28.981Z,97203.09
2023-03-12T10:16:35.907Z,97207.22
2023-03-12T10:19:38.296Z,97209.56
2023-03-12T10:22:20.463Z,97208.72
2023-03-12T10:25:19.133Z,97211.03
2023-03-12T10:27:48.087Z,97223.50
2023-03-12T10:30:24.661Z,97223.66
2023-03-12T10:33:10.026Z,97229.00
2023-03-12T10:35:40.408Z,97229.81
2023-03-12T10:38:29.061Z,97231.66
2023-03-12T10:40:56.560Z,97229.69
2023-03-12T10:43:25.352Z,97240.97
2023-03-12T10:46:14.638Z,97241.13
2023-03-12T10:48:43.296Z,97228.81
2023-03-12T10:51:13.491Z,97241.16
2023-03-12T10:53:47.994Z,97246.13
2023-03-12T10:56:19.213Z,97239.47
2023-03-12T10:58:50.436Z,97242.97
2023-03-12T11:01:24.596Z,97245.06
2023-03-12T11:03:53.755Z,97249.38
2023-03-12T11:06:29.495Z,97239.16
2023-03-12T11:09:17.734Z,97235.72
2023-03-12T11:11:50.283Z,97241.50
2023-03-12T11:14:27.781Z,97243.28
2023-03-12T11:16:56.946Z,97237.78
2023-03-12T11:19:34.052Z,97234.53
2023-03-12T11:22:08.030Z,97238.97
2023-03-12T11:24:36.042Z,97233.66
2023-03-12T11:27:43.905Z,97239.72
2023-03-12T11:30:19.354Z,97241.13
2023-03-12T11:32:52.372Z,97249.56
2023-03-12T11:35:39.245Z,97228.38
2023-03-12T11:38:21.412Z,97244.22
2023-03-12T11:41:42.940Z,97242.75
2023-03-12T11:44:38.323Z,97254.09
2023-03-12T11:47:53.871Z,97255.53
2023-03-12T11:50:57.663Z,97248.06
2023-03-12T11:53:37.289Z,97253.63
2023-03-12T11:56:23.292Z,97250.91
2023-03-12T11:59:06.140Z,97254.69
2023-03-12T12:02:01.537Z,97257.84
2023-03-12T12:05:14.613Z,97234.44
2023-03-12T12:08:28.489Z,97224.22
2023-03-12T12:11:18.983Z,97222.63
2023-03-12T12:14:17.539Z,97224.19
2023-03-12T12:16:58.892Z,97233.13
2023-03-12T12:20:11.196Z,97233.19
2023-03-12T12:23:38.191Z,97234.31
2023-03-12T12:26:55.068Z,97217.50
2023-03-12T12:30:03.691Z,97217.91
2023-03-12T12:32:55.879Z,97215.53
2023-03-12T12:35:40.615Z,97214.66
2023-03-12T12:38:30.177Z,97198.94
2023-03-12T12:41:26.375Z,97213.78
2023-03-12T12:44:27.054Z,97210.81
2023-03-12T12:47:01.325Z,97216.63
2023-03-12T12:49:57.412Z,97223.44
2023-03-12T12:52:26.927Z,97219.47
2023-03-12T12:55:30.294Z,97216.16
2023-03-12T12:58:11.009Z,97228.50
2023-03-12T13:00:59.381Z,97223.44
2023-03-12T13:03:29.219Z,97227.47
2023-03-12T13:06:06.580Z,97221.63
2023-03-12T13:08:38.382Z,97231.38
2023-03-12T13:11:20.020Z,97228.94
2023-03-12T13:14:11.612Z,97236.31
2023-03-12T13:16:45.018Z,97225.50
2023-03-12T13:19:15.810Z,97229.75
2023-03-12T13:22:00.504Z,97218.56
2023-03-12T13:25:03.967Z,97221.06
2023-03-12T13:27:40.335Z,97224.28
2023-03-12T13:30:32.616Z,97220.03
2023-03-12T13:33:02.971Z,97221.81
2023-03-12T13:35:36.150Z,97206.38
2023-03-12T13:38:07.509Z,97201.63
2023-03-12T13:41:01.918Z,97199.00
2023-03-12T13:43:35.187Z,97215.94
2023-03-12T13:46:15.958Z,97224.28
2023-03-12T13:48:48.808Z,97210.72
2023-03-12T13:51:23.438Z,97202.06
2023-03-12T13:54:03.868Z,97211.38
2023-03-12T13:56:33.369Z,97200.97
2023-03-12T13:59:06.067Z,97201.63
2023-03-12T14:01:47.393Z,97212.06
2023-03-12T14:04:21.822Z,97211.69
2023-03-12T14:07:20.223Z,97219.34
2023-03-12T14:10:02.494Z,97233.66
2023-03-12T14:13:03.610Z,97217.84
2023-03-12T14:16:16.371Z,97222.81
2023-03-12T14:18:45.444Z,97217.28
2023-03-12T14:21:17.843Z,97233.53
2023-03-12T14:23:57.378Z,97231.31
2023-03-12T14:26:32.605Z,97234.13
2023-03-12T14:29:19.144Z,97236.66
2023-03-12T14:31:49.142Z,97235.25
2023-03-12T14:34:21.031Z,97238.69
2023-03-12T14:37:05.672Z,97237.44
2023-03-12T14:39:42.192Z,97223.19
2023-03-12T14:42:18.192Z,97230.91
2023-03-12T14:45:19.521Z,97222.75
2023-03-12T14:47:55.541Z,97213.34
2023-03-12T14:50:25.245Z,97223.94
2023-03-12T14:52:53.519Z,97218.00
2023-03-12T14:55:25.005Z,97214.34
2023-03-12T14:58:14.624Z,97217.13
2023-03-12T15:00:44.061Z,97217.44
2023-03-12T15:03:17.065Z,97230.16
2023-03-12T15:05:47.623Z,97229.34
2023-03-12T15:08:16.563Z,97224.38
2023-03-12T15:10:58.343Z,97221.34
2023-03-12T15:13:27.864Z,97225.09
2023-03-12T15:15:56.071Z,97213.28
2023-03-12T15:18:32.893Z,97219.84
2023-03-12T15:21:03.002Z,97213.72
2023-03-12T15:23:34.814Z,97207.72
2023-03-12T15:26:19.232Z,97211.66
2023-03-12T15:29:15.147Z,97208.59
2023-03-12T15:31:45.833Z,97213.91
2023-03-12T15:34:27.461Z,97205.44
2023-03-12T15:36:55.117Z,97218.59
2023-03-12T15:39:29.512Z,97211.56
2023-03-12T15:42:09.303Z,97203.16
2023-03-12T15:44:59.778Z,97210.94
2023-03-12T15:47:31.917Z,97216.75
2023-03-12T15:50:30.489Z,97216.66
2023-03-12T15:53:26.639Z,97219.56
2023-03-12T15:56:00.967Z,97225.94
2023-03-12T15:58:35.706Z,97214.41
2023-03-12T16:01:16.063Z,97207.81
2023-03-12T16:03:45.890Z,97213.34
2023-03-12T16:06:20.288Z,97207.00
2023-03-12T16:08:56.492Z,97210.25
2023-03-12T16:11:28.151Z,97210.00
2023-03-12T16:14:24.597Z,97199.88
2023-03-12T16:16:52.192Z,97209.31
2023-03-12T16:19:22.448Z,97202.13
2023-03-12T16:21:51.095Z,97202.13
2023-03-12T16:24:18.674Z,97204.81
2023-03-12T16:26:54.814Z,97207.47
2023-03-12T16:29:49.744Z,97196.56
2023-03-12T16:32:17.646Z,97208.34
2023-03-12T16:34:45.844Z,97214.97
2023-03-12T16:37:13.465Z,97213.50
2023-03-12T16:39:40.963Z,97209.38
2023-03-12T16:42:16.921Z,97213.50
2023-03-12T16:44:46.599Z,97207.97
2023-03-12T16:47:14.606Z,97197.06
2023-03-12T16:49:43.749Z,97198.53
2023-03-12T16:52:20.390Z,97203.06
2023-03-12T16:54:52.072Z,97205.75
2023-03-12T16:57:39.816Z,97205.09
2023-03-12T17:00:13.952Z,97199.94
2023-03-12T17:02:41.457Z,97202.34
2023-03-12T17:05:09.453Z,97205.81
2023-03-12T17:07:37.025Z,97206.19
2023-03-12T17:10:06.281Z,97208.44
2023-03-12T17:12:38.568Z,97207.38
2023-03-12T17:15:27.454Z,97201.38
2023-03-12T17:17:55.732Z,97206.47
2023-03-12T17:20:24.456Z,97214.22
2023-03-12T17:22:53.058Z,97221.81
2023-03-12T17:25:30.945Z,97214.19
2023-03-12T17:27:59.612Z,97213.47
2023-03-12T17:30:29.509Z,97222.25
2023-03-12T17:33:12.373Z,97222.19
2023-03-12T17:35:40.313Z,97229.56
2023-03-12T17:38:09.423Z,97219.25
2023-03-12T17:40:42.363Z,97225.81
2023-03-12T17:43:10.393Z,97223.47
2023-03-12T17:45:38.003Z,97224.69
2023-03-12T17:48:05.707Z,97227.34
2023-03-12T17:50:33.495Z,97233.34
2023-03-12T17:53:01.058Z,97231.66
2023-03-12T17:55:28.657Z,97224.50
2023-03-12T17:57:56.208Z,97230.66
2023-03-12T18:00:23.864Z,97222.81
2023-03-12T18:02:51.382Z,97231.88
2023-03-12T18:05:18.988Z,97229.56
2023-03-12T18:07:48.528Z,97229.13
2023-03-12T18:10:16.528Z,97230.31
2023-03-12T18:12:44.370Z,97228.88
2023-03-12T18:15:14.743Z,97228.03
2023-03-12T18:17:44.731Z,97225.09
2023-03-12T18:20:25.850Z,97232.47
2023-03-12T18:22:59.790Z,97234.13
2023-03-12T18:25:27.353Z,97242.97
2023-03-12T18:27:56.655Z,97241.78
2023-03-12T18:30:24.248Z,97245.44
2023-03-12T18:32:51.815Z,97242.31
2023-03-12T18:35:19.425Z,97248.88
2023-03-12T18:37:47.552Z,97251.72
2023-03-12T18:40:15.198Z,97251.72
2023-03-12T18:42:44.273Z,97263.22
2023-03-12T18:45:12.677Z,97257.06
2023-03-12T18:47:40.364Z,97263.44
2023-03-12T18:50:09.551Z,97257.06
2023-03-12T18:52:37.429Z,97249.06
2023-03-12T18:55:05.661Z,97251.09
2023-03-12T18:57:33.480Z,97250.44
2023-03-12T19:00:01.260Z,97244.47
2023-03-12T19:02:28.888Z,97252.47
2023-03-12T19:04:56.506Z,97243.81
2023-03-12T19:07:24.148Z,97254.03
2023-03-12T19:09:51.656Z,97261.41
2023-03-12T19:12:19.184Z,97251.47
2023-03-12T19:14:46.701Z,97256.81
2023-03-12T19:17:14.217Z,97256.00
2023-03-12T19:19:41.791Z,97259.66
2023-03-12T19:22:09.282Z,97260.69
2023-03-12T19:24:36.896Z,97264.53
2023-03-12T19:27:04.435Z,97254.03
2023-03-12T19:29:32.012Z,97253.22
2023-03-12T19:31:59.627Z,97252.41
2023-03-12T19:34:27.123Z,97256.28
2023-03-12T19:36:54.615Z,97258.72
2023-03-12T19:39:22.097Z,97264.94
2023-03-12T19:41:50.518Z,97267.78
2023-03-12T19:44:18.034Z,97273.94
2023-03-12T19:46:45.590Z,97274.97
2023-03-12T19:49:13.127Z,97274.13
2023-03-12T19:51:41.144Z,97273.28
2023-03-12T19:54:08.679Z,97272.66
2023-03-12T19:56:36.404Z,97269.69
2023-03-12T19:59:03.964Z,97270.06
2023-03-12T20:01:31.495Z,97270.44
2023-03-12T20:03:59.002Z,97261.59
2023-03-12T20:06:26.532Z,97267.13
2023-03-12T20:08:54.065Z,97256.81
2023-03-12T20:11:21.557Z,97259.19
2023-03-12T20:13:49.064Z,97259.38
2023-03-12T20:16:16.933Z,97262.41
2023-03-12T20:18:44.946Z,97259.28
2023-03-12T20:21:12.592Z,97267.47
2023-03-12T20:23:40.121Z,97250.00
2023-03-12T20:26:07.653Z,97248.97
2023-03-12T20:28:35.407Z,97251.63
2023-03-12T20:31:15.082Z,97248.97
2023-03-12T20:33:43.270Z,97252.66
2023-03-12T20:36:13.714Z,97245.66
2023-03-12T20:38:41.627Z,97252.19
2023-03-12T20:41:14.177Z,97261.19
2023-03-12T20:43:42.739Z,97264.03
2023-03-12T20:46:11.619Z,97256.22
2023-03-12T20:48:39.161Z,97263.22
2023-03-12T20:51:06.688Z,97262.56
2023-03-12T20:53:34.242Z,97262.56
2023-03-12T20:56:01.889Z,97262.09
2023-03-12T20:58:29.388Z,97261.91
2023-03-12T21:00:59.467Z,97261.09
2023-03-12T21:03:27.156Z,97261.91
2023-03-12T21:05:57.053Z,97255.38
2023-03-12T21:08:25.944Z,97255.84
2023-03-12T21:10:53.652Z,97256.31
2023-03-12T21:13:23.269Z,97253.47
2023-03-12T21:15:51.176Z,97256.16
2023-03-12T21:18:19.122Z,97259.00
2023-03-12T21:20:46.815Z,97249.31
2023-03-12T21:23:14.668Z,97251.53
2023-03-12T21:25:42.300Z,97247.75
2023-03-12T21:28:10.880Z,97253.44
2023-03-12T21:30:38.881Z,97251.97
2023-03-12T21:33:07.281Z,97245.34
2023-03-12T21:35:34.787Z,97246.34
2023-03-12T21:38:02.654Z,97241.38
2023-03-12T21:40:30.156Z,97237.22
2023-03-12T21:42:57.666Z,97247.06
2023-03-12T21:45:25.529Z,97246.25
2023-03-12T21:47:53.931Z,97236.56
2023-03-12T21:50:22.088Z,97236.38
2023-03-12T21:52:50.692Z,97241.09
2023-03-12T21:55:18.867Z,97240.44
2023-03-12T21:57:46.454Z,97232.25
2023-03-12T22:00:14.697Z,97235.09
2023-03-12T22:02:44.511Z,97229.75
2023-03-12T22:05:12.465Z,97224.44
2023-03-12T22:07:40.269Z,97225.06
2023-03-12T22:10:11.798Z,97226.91
2023-03-12T22:12:40.475Z,97223.22
2023-03-12T22:15:08.852Z,97220.72
2023-03-12T22:17:36.348Z,97219.91
2023-03-12T22:20:05.218Z,97210.44
2023-03-12T22:22:33.464Z,97212.47
2023-03-12T22:25:01.007Z,97201.16
2023-03-12T22:27:28.890Z,97193.84
2023-03-12T22:29:57.381Z,97186.19
2023-03-12T22:32:25.638Z,97186.53
2023-03-12T22:34:53.172Z,97180.38
2023-03-12T22:37:20.735Z,97177.06
2023-03-12T22:39:48.243Z,97174.41
2023-03-12T22:42:15.797Z,97170.06
2023-03-12T22:44:43.537Z,97162.44
2023-03-12T22:47:11.049Z,97163.63
2023-03-12T22:49:39.125Z,97154.97
2023-03-12T22:52:06.926Z,97150.66
2023-03-12T22:54:34.553Z,97159.00
2023-03-12T22:57:02.088Z,97153.03
2023-03-12T22:59:29.642Z,97154.03
2023-03-12T23:01:57.249Z,97163.69
2023-03-12T23:04:24.855Z,97155.50
2023-03-12T23:06:55.350Z,97155.69
2023-03-12T23:09:29.084Z,97161.00
2023-03-12T23:11:56.607Z,97157.69
2023-03-12T23:14:24.166Z,97158.09
2023-03-12T23:16:51.694Z,97156.59
2023-03-12T23:19:19.256Z,97154.28
2023-03-12T23:21:47.588Z,97154.81
2023-03-12T23:24:15.094Z,97147.00
2023-03-12T23:26:43.595Z,97149.84
2023-03-12T23:29:12.499Z,97151.22
2023-03-12T23:31:40.165Z,97146.88
2023-03-12T23:34:09.473Z,97140.09
2023-03-12T23:36:37.081Z,97132.91
2023-03-12T23:39:04.718Z,97131.91
2023-03-12T23:41:32.436Z,97129.91
2023-03-12T23:44:00.501Z,97136.88
2023-03-12T23:46:28.122Z,97139.38
2023-03-12T23:48:57.279Z,97135.88
2023-03-12T23:51:28.377Z,97131.19
2023-03-12T23:54:01.534Z,97130.16
2023-03-12T23:56:35.502Z,97119.16
2023-03-12T23:59:04.580Z,97120.16
